Time;durP1;ratioP1;P1;durP2;ratioP2;P2;SDS_P1;SDS_P2;PMS_P1;PMS_P2;Temp;Humidity;BMP_temperature;BMP_pressure;BME280_temperature;BME280_humidity;BME280_pressure;Samples;Min_cycle;Max_cycle;Signal;HPM_P1;HPM_P2
2023/06/01 00:01:20;;;;;;;2.20;2.00;;;;;;;;;;5138669;27;20209;-65
2023/06/01 00:03:48;;;;;;;2.33;2.13;;;;;;;;;;5138493;27;20247;-65
2023/06/01 00:06:15;;;;;;;2.20;2.00;;;;;;;;;;5138689;27;20516;-65
2023/06/01 00:08:43;;;;;;;2.38;2.17;;;;;;;;;;5139042;27;20570;-64
2023/06/01 00:11:10;;;;;;;2.20;2.00;;;;;;;;;;5138971;27;20202;-65
2023/06/01 00:13:39;;;;;;;2.55;2.05;;;;;;;;;;5138692;27;20222;-65
2023/06/01 00:16:07;;;;;;;2.30;2.08;;;;;;;;;;5138664;27;20202;-65
2023/06/01 00:18:34;;;;;;;2.50;2.30;;;;;;;;;;5138623;27;20839;-65
2023/06/01 00:21:01;;;;;;;2.35;2.15;;;;;;;;;;5138064;27;20574;-64
2023/06/01 00:23:29;;;;;;;2.28;2.08;;;;;;;;;;5138616;27;20198;-64
2023/06/01 00:25:56;;;;;;;2.30;2.10;;;;;;;;;;5138465;27;20210;-63
2023/06/01 00:28:24;;;;;;;2.35;2.10;;;;;;;;;;5138366;27;20205;-64
2023/06/01 00:30:53;;;;;;;2.38;2.17;;;;;;;;;;5138663;27;20202;-64
2023/06/01 00:33:20;;;;;;;2.42;2.22;;;;;;;;;;5138870;27;20214;-65
2023/06/01 00:35:47;;;;;;;2.10;1.90;;;;;;;;;;5138427;27;20237;-63
2023/06/01 00:38:15;;;;;;;2.30;2.10;;;;;;;;;;5138743;27;20598;-64
2023/06/01 00:40:43;;;;;;;2.05;1.85;;;;;;;;;;5138398;27;20560;-63
2023/06/01 00:43:10;;;;;;;2.40;2.20;;;;;;;;;;5138084;27;20202;-63
2023/06/01 00:45:38;;;;;;;2.47;2.28;;;;;;;;;;5138244;27;20210;-63
2023/06/01 00:48:07;;;;;;;2.45;2.20;;;;;;;;;;5138781;27;20210;-63
2023/06/01 00:50:35;;;;;;;2.30;2.10;;;;;;;;;;5138329;27;20457;-64
2023/06/01 00:53:04;;;;;;;2.30;2.10;;;;;;;;;;5138072;27;20508;-63
2023/06/01 00:55:31;;;;;;;2.85;2.20;;;;;;;;;;5138412;28;20202;-63
2023/06/01 00:57:59;;;;;;;2.42;2.22;;;;;;;;;;5138180;28;20202;-64
2023/06/01 01:00:28;;;;;;;2.13;1.92;;;;;;;;;;5138472;28;20209;-63
2023/06/01 01:02:56;;;;;;;2.08;1.90;;;;;;;;;;5137361;28;20206;-64
2023/06/01 01:05:26;;;;;;;2.30;2.10;;;;;;;;;;5137875;28;20582;-63
2023/06/01 01:07:57;;;;;;;2.03;1.92;;;;;;;;;;5138205;28;20229;-64
2023/06/01 01:10:27;;;;;;;2.30;1.95;;;;;;;;;;5138405;28;20202;-65
2023/06/01 01:13:00;;;;;;;2.30;2.10;;;;;;;;;;5137948;28;20210;-64
2023/06/01 01:15:29;;;;;;;2.15;1.83;;;;;;;;;;5138056;28;20226;-63
2023/06/01 01:18:02;;;;;;;2.42;2.13;;;;;;;;;;5138232;28;20214;-63
2023/06/01 01:20:35;;;;;;;2.35;2.15;;;;;;;;;;5138438;28;20294;-63
2023/06/01 01:23:17;;;;;;;2.20;2.00;;;;;;;;;;5137068;28;20495;-63
2023/06/01 01:26:01;;;;;;;2.80;2.00;;;;;;;;;;5140207;27;20336;-64
2023/06/01 01:28:37;;;;;;;2.10;1.90;;;;;;;;;;5142086;27;20202;-63
2023/06/01 01:31:05;;;;;;;2.20;2.00;;;;;;;;;;5142227;27;20197;-63
2023/06/01 01:33:33;;;;;;;3.08;1.90;;;;;;;;;;5142363;27;20305;-64
2023/06/01 01:36:01;;;;;;;2.30;2.10;;;;;;;;;;5142039;27;20225;-65
2023/06/01 01:38:28;;;;;;;2.30;2.10;;;;;;;;;;5142018;27;20206;-64
2023/06/01 01:40:56;;;;;;;2.10;1.90;;;;;;;;;;5141582;27;20206;-64
2023/06/01 01:43:24;;;;;;;2.45;2.25;;;;;;;;;;5141587;27;20263;-66
2023/06/01 01:45:56;;;;;;;2.28;2.08;;;;;;;;;;5142146;27;20596;-62
2023/06/01 01:48:25;;;;;;;2.22;2.03;;;;;;;;;;5142240;27;20454;-66
2023/06/01 01:50:55;;;;;;;2.25;2.05;;;;;;;;;;5141481;27;20602;-63
2023/06/01 01:53:24;;;;;;;2.47;2.28;;;;;;;;;;5141502;27;20209;-64
2023/06/01 01:55:52;;;;;;;1.98;1.88;;;;;;;;;;5141875;27;20461;-63
2023/06/01 01:58:20;;;;;;;2.10;2.00;;;;;;;;;;5141774;27;20210;-63
2023/06/01 02:00:48;;;;;;;2.75;2.25;;;;;;;;;;5141547;27;20212;-64
2023/06/01 02:03:18;;;;;;;2.30;2.10;;;;;;;;;;5141718;27;20249;-64
2023/06/01 02:05:45;;;;;;;2.30;2.10;;;;;;;;;;5141458;27;20213;-66
2023/06/01 02:08:13;;;;;;;2.50;2.30;;;;;;;;;;5141303;27;20605;-63
2023/06/01 02:10:41;;;;;;;2.13;1.92;;;;;;;;;;5141158;27;20202;-63
2023/06/01 02:13:08;;;;;;;2.33;2.13;;;;;;;;;;5140913;27;20470;-64
2023/06/01 02:15:36;;;;;;;2.45;2.25;;;;;;;;;;5141667;27;20320;-63
2023/06/01 02:18:03;;;;;;;2.03;1.92;;;;;;;;;;5141102;27;20601;-63
2023/06/01 02:20:32;;;;;;;2.40;2.10;;;;;;;;;;5141292;27;20494;-63
2023/06/01 02:22:59;;;;;;;2.03;1.90;;;;;;;;;;5141304;27;20487;-63
2023/06/01 02:25:27;;;;;;;2.75;2.20;;;;;;;;;;5141272;27;20198;-63
2023/06/01 02:27:54;;;;;;;2.50;2.30;;;;;;;;;;5140976;27;20236;-64
2023/06/01 02:30:22;;;;;;;2.00;1.90;;;;;;;;;;5140924;27;20213;-64
2023/06/01 02:32:49;;;;;;;2.35;2.15;;;;;;;;;;5140743;27;20297;-63
2023/06/01 02:35:16;;;;;;;2.08;1.83;;;;;;;;;;5140778;27;20519;-62
2023/06/01 02:37:45;;;;;;;2.30;2.10;;;;;;;;;;5139825;27;20202;-63
2023/06/01 02:40:12;;;;;;;2.30;2.10;;;;;;;;;;5140846;27;20213;-64
2023/06/01 02:42:40;;;;;;;2.22;2.10;;;;;;;;;;5140480;27;20251;-63
2023/06/01 02:45:08;;;;;;;2.15;1.98;;;;;;;;;;5140764;27;20485;-64
2023/06/01 02:47:36;;;;;;;2.00;1.90;;;;;;;;;;5140104;27;20202;-63
2023/06/01 02:50:04;;;;;;;2.70;2.20;;;;;;;;;;5140504;27;20514;-68
2023/06/01 02:52:32;;;;;;;2.25;2.05;;;;;;;;;;5140942;27;20306;-64
2023/06/01 02:55:00;;;;;;;2.13;1.92;;;;;;;;;;5140190;27;20241;-63
2023/06/01 02:57:28;;;;;;;1.92;1.83;;;;;;;;;;5140297;27;20621;-63
2023/06/01 02:59:55;;;;;;;2.33;1.90;;;;;;;;;;5140711;27;20213;-63
2023/06/01 03:02:23;;;;;;;2.22;2.08;;;;;;;;;;5139636;27;20202;-63
2023/06/01 03:04:50;;;;;;;2.40;2.17;;;;;;;;;;5139927;27;20199;-63
2023/06/01 03:07:18;;;;;;;2.47;2.28;;;;;;;;;;5139812;27;20464;-64
2023/06/01 03:09:46;;;;;;;2.05;1.90;;;;;;;;;;5140203;27;20542;-64
2023/06/01 03:12:14;;;;;;;2.10;1.98;;;;;;;;;;5140054;27;20202;-64
2023/06/01 03:14:42;;;;;;;2.47;2.28;;;;;;;;;;5140281;27;20233;-64
2023/06/01 03:17:09;;;;;;;2.97;2.40;;;;;;;;;;5140047;27;20205;-64
2023/06/01 03:19:37;;;;;;;3.05;2.10;;;;;;;;;;5139813;27;20209;-64
2023/06/01 03:22:04;;;;;;;2.40;2.20;;;;;;;;;;5139769;27;20203;-63
2023/06/01 03:24:32;;;;;;;2.30;2.10;;;;;;;;;;5139695;27;20245;-63
2023/06/01 03:26:59;;;;;;;2.17;2.08;;;;;;;;;;5139550;27;20206;-63
2023/06/01 03:29:28;;;;;;;2.55;2.35;;;;;;;;;;5139981;27;20497;-63
2023/06/01 03:31:55;;;;;;;2.95;2.22;;;;;;;;;;5139448;27;20194;-63
2023/06/01 03:34:23;;;;;;;2.40;2.20;;;;;;;;;;5138757;27;20269;-63
2023/06/01 03:36:50;;;;;;;2.35;2.15;;;;;;;;;;5139466;27;20202;-63
2023/06/01 03:39:17;;;;;;;2.20;2.00;;;;;;;;;;5139318;27;20488;-64
2023/06/01 03:41:45;;;;;;;2.45;2.28;;;;;;;;;;5138550;27;20238;-64
2023/06/01 03:44:12;;;;;;;2.50;2.30;;;;;;;;;;5138732;27;20297;-63
2023/06/01 03:46:41;;;;;;;2.45;2.20;;;;;;;;;;5138662;27;20247;-63
2023/06/01 03:49:09;;;;;;;2.25;2.05;;;;;;;;;;5138367;27;20477;-63
2023/06/01 03:51:37;;;;;;;2.20;2.10;;;;;;;;;;5138215;27;20213;-63
2023/06/01 03:54:04;;;;;;;2.25;2.05;;;;;;;;;;5137609;27;20246;-63
2023/06/01 03:56:32;;;;;;;2.25;2.08;;;;;;;;;;5137658;27;20214;-63
2023/06/01 03:59:00;;;;;;;3.28;2.28;;;;;;;;;;5138750;27;20270;-64
2023/06/01 04:01:28;;;;;;;2.28;2.08;;;;;;;;;;5138696;27;20693;-63
2023/06/01 04:03:57;;;;;;;2.70;2.42;;;;;;;;;;5138352;27;20209;-63
2023/06/01 04:06:29;;;;;;;2.10;1.88;;;;;;;;;;5138894;27;20198;-63
2023/06/01 04:08:58;;;;;;;2.70;2.50;;;;;;;;;;5138689;27;20202;-63
2023/06/01 04:11:26;;;;;;;2.58;2.38;;;;;;;;;;5138576;27;20285;-63
2023/06/01 04:13:53;;;;;;;2.85;2.60;;;;;;;;;;5138537;27;20545;-62
2023/06/01 04:16:21;;;;;;;2.53;2.20;;;;;;;;;;5138753;27;20234;-63
2023/06/01 04:18:48;;;;;;;3.15;2.50;;;;;;;;;;5138651;27;20214;-63
2023/06/01 04:21:17;;;;;;;2.35;2.15;;;;;;;;;;5137628;27;20213;-63
2023/06/01 04:23:44;;;;;;;2.70;2.50;;;;;;;;;;5137010;27;20248;-64
2023/06/01 04:26:12;;;;;;;2.95;2.65;;;;;;;;;;5138146;27;20199;-64
2023/06/01 04:28:43;;;;;;;3.00;2.80;;;;;;;;;;5137029;27;20210;-66
2023/06/01 04:31:16;;;;;;;3.05;2.50;;;;;;;;;;5137945;27;20210;-63
2023/06/01 04:33:45;;;;;;;2.40;2.20;;;;;;;;;;5137292;27;20279;-63
2023/06/01 04:36:13;;;;;;;2.60;2.33;;;;;;;;;;5137244;27;20226;-63
2023/06/01 04:38:43;;;;;;;2.95;2.35;;;;;;;;;;5136921;27;20206;-63
2023/06/01 04:41:10;;;;;;;2.75;2.55;;;;;;;;;;5137020;27;20206;-63
2023/06/01 04:43:39;;;;;;;2.70;2.50;;;;;;;;;;5136970;27;20555;-63
2023/06/01 04:46:07;;;;;;;3.83;2.80;;;;;;;;;;5136790;27;20549;-62
2023/06/01 04:48:36;;;;;;;3.20;2.47;;;;;;;;;;5137261;27;20214;-62
2023/06/01 04:51:04;;;;;;;2.50;2.30;;;;;;;;;;5136391;27;20479;-62
2023/06/01 04:53:31;;;;;;;2.70;2.35;;;;;;;;;;5136854;27;20210;-63
2023/06/01 04:56:00;;;;;;;2.90;2.58;;;;;;;;;;5135790;27;20226;-63
2023/06/01 04:58:27;;;;;;;4.05;2.67;;;;;;;;;;5135052;28;20566;-63
2023/06/01 05:00:55;;;;;;;3.67;2.90;;;;;;;;;;5135294;27;20209;-63
2023/06/01 05:03:22;;;;;;;2.58;2.38;;;;;;;;;;5134275;28;20224;-63
2023/06/01 05:05:50;;;;;;;2.85;2.60;;;;;;;;;;5134465;28;20198;-62
2023/06/01 05:08:17;;;;;;;2.63;2.42;;;;;;;;;;5134062;28;20479;-63
2023/06/01 05:10:44;;;;;;;2.95;2.67;;;;;;;;;;5134705;28;20198;-63
2023/06/01 05:13:13;;;;;;;2.60;2.40;;;;;;;;;;5133946;28;20225;-63
2023/06/01 05:15:41;;;;;;;2.88;2.67;;;;;;;;;;5133390;28;20632;-65
2023/06/01 05:18:08;;;;;;;2.97;2.67;;;;;;;;;;5133416;28;20213;-63
2023/06/01 05:20:35;;;;;;;2.85;2.60;;;;;;;;;;5134245;28;20212;-63
2023/06/01 05:23:03;;;;;;;2.95;2.65;;;;;;;;;;5134433;28;20206;-64
2023/06/01 05:25:30;;;;;;;3.13;2.80;;;;;;;;;;5134530;28;20225;-64
2023/06/01 05:27:58;;;;;;;3.25;3.00;;;;;;;;;;5134660;28;20567;-64
2023/06/01 05:30:27;;;;;;;3.00;2.72;;;;;;;;;;5133633;28;20198;-63
2023/06/01 05:32:54;;;;;;;2.80;2.60;;;;;;;;;;5133409;28;20202;-63
2023/06/01 05:35:22;;;;;;;3.20;2.90;;;;;;;;;;5132078;28;20249;-64
2023/06/01 05:37:49;;;;;;;3.00;2.80;;;;;;;;;;5132699;28;20205;-64
2023/06/01 05:40:17;;;;;;;2.78;2.58;;;;;;;;;;5132987;28;20263;-63
2023/06/01 05:42:44;;;;;;;3.08;2.85;;;;;;;;;;5132967;28;20214;-66
2023/06/01 05:45:12;;;;;;;3.25;2.65;;;;;;;;;;5133273;28;20677;-63
2023/06/01 05:47:40;;;;;;;3.00;2.80;;;;;;;;;;5133072;28;20203;-64
2023/06/01 05:50:08;;;;;;;2.80;2.60;;;;;;;;;;5133562;28;20218;-63
2023/06/01 05:52:35;;;;;;;2.67;2.45;;;;;;;;;;5134383;28;20297;-63
2023/06/01 05:55:03;;;;;;;3.15;2.85;;;;;;;;;;5133792;28;20222;-63
2023/06/01 05:57:30;;;;;;;3.22;2.80;;;;;;;;;;5133512;28;20209;-63
2023/06/01 05:59:58;;;;;;;2.83;2.63;;;;;;;;;;5132942;28;20215;-63
2023/06/01 06:02:25;;;;;;;2.97;2.70;;;;;;;;;;5133906;28;20701;-64
2023/06/01 06:04:54;;;;;;;3.08;2.78;;;;;;;;;;5134245;28;20431;-63
2023/06/01 06:07:22;;;;;;;2.58;2.38;;;;;;;;;;5134244;28;20574;-64
2023/06/01 06:09:49;;;;;;;3.80;2.80;;;;;;;;;;5134810;28;20206;-64
2023/06/01 06:12:17;;;;;;;3.15;2.65;;;;;;;;;;5134376;27;20202;-63
2023/06/01 06:14:44;;;;;;;3.25;2.95;;;;;;;;;;5137840;27;20202;-63
2023/06/01 06:17:11;;;;;;;3.38;2.80;;;;;;;;;;5137104;27;20308;-63
2023/06/01 06:19:39;;;;;;;3.20;2.90;;;;;;;;;;5138194;27;20213;-63
2023/06/01 06:22:07;;;;;;;3.45;3.00;;;;;;;;;;5137740;27;20214;-63
2023/06/01 06:24:35;;;;;;;3.28;2.45;;;;;;;;;;5136682;27;20209;-64
2023/06/01 06:27:03;;;;;;;2.92;2.60;;;;;;;;;;5136519;27;20516;-63
2023/06/01 06:29:30;;;;;;;3.72;3.00;;;;;;;;;;5137513;27;20210;-63
2023/06/01 06:31:58;;;;;;;3.00;2.80;;;;;;;;;;5137394;27;20245;-63
2023/06/01 06:34:25;;;;;;;3.67;2.60;;;;;;;;;;5136879;27;20320;-63
2023/06/01 06:36:53;;;;;;;3.10;2.80;;;;;;;;;;5136713;27;20501;-63
2023/06/01 06:39:22;;;;;;;2.78;2.58;;;;;;;;;;5137286;27;20334;-63
2023/06/01 06:41:50;;;;;;;3.17;2.88;;;;;;;;;;5135494;27;20202;-63
2023/06/01 06:44:17;;;;;;;3.15;2.80;;;;;;;;;;5136389;27;20208;-63
2023/06/01 06:46:44;;;;;;;2.67;2.47;;;;;;;;;;5137888;27;20562;-65
2023/06/01 06:49:12;;;;;;;3.28;2.97;;;;;;;;;;5136418;27;20212;-65
2023/06/01 06:51:40;;;;;;;3.03;2.75;;;;;;;;;;5136455;27;20220;-65
2023/06/01 06:54:07;;;;;;;3.05;2.75;;;;;;;;;;5136786;27;20202;-64
2023/06/01 06:56:36;;;;;;;3.70;2.83;;;;;;;;;;5136995;27;20421;-65
2023/06/01 06:59:03;;;;;;;3.17;2.80;;;;;;;;;;5136828;27;20582;-64
2023/06/01 07:01:31;;;;;;;2.63;2.42;;;;;;;;;;5135928;27;20194;-63
2023/06/01 07:03:58;;;;;;;3.35;2.63;;;;;;;;;;5137033;27;20282;-65
2023/06/01 07:06:26;;;;;;;3.35;2.70;;;;;;;;;;5137583;27;20629;-63
2023/06/01 07:08:53;;;;;;;3.75;3.00;;;;;;;;;;5138190;27;20213;-64
2023/06/01 07:11:20;;;;;;;3.92;2.85;;;;;;;;;;5138263;27;20204;-64
2023/06/01 07:13:49;;;;;;;3.17;2.88;;;;;;;;;;5136538;27;20202;-64
2023/06/01 07:16:17;;;;;;;2.80;2.35;;;;;;;;;;5137507;27;20229;-65
2023/06/01 07:18:44;;;;;;;3.13;2.83;;;;;;;;;;5136507;27;20293;-63
2023/06/01 07:21:12;;;;;;;2.88;2.67;;;;;;;;;;5136949;27;20212;-64
2023/06/01 07:23:39;;;;;;;3.28;2.97;;;;;;;;;;5136309;27;20209;-64
2023/06/01 07:26:06;;;;;;;3.05;2.80;;;;;;;;;;5135937;27;20571;-65
2023/06/01 07:28:34;;;;;;;4.13;2.83;;;;;;;;;;5136741;27;20210;-62
2023/06/01 07:31:02;;;;;;;3.20;2.80;;;;;;;;;;5136338;27;20202;-63
2023/06/01 07:33:30;;;;;;;4.03;2.80;;;;;;;;;;5136245;27;20602;-64
2023/06/01 07:35:58;;;;;;;2.92;2.70;;;;;;;;;;5135402;27;20455;-65
2023/06/01 07:38:26;;;;;;;2.78;2.58;;;;;;;;;;5135238;27;20202;-63
2023/06/01 07:40:53;;;;;;;2.88;2.53;;;;;;;;;;5135449;27;20206;-64
2023/06/01 07:43:21;;;;;;;3.13;2.58;;;;;;;;;;5135402;27;20202;-64
2023/06/01 07:45:48;;;;;;;3.03;2.72;;;;;;;;;;5135783;27;20301;-64
2023/06/01 07:48:17;;;;;;;3.22;2.70;;;;;;;;;;5135829;27;20581;-63
2023/06/01 07:50:44;;;;;;;3.00;2.63;;;;;;;;;;5136543;27;20463;-63
2023/06/01 07:53:13;;;;;;;3.25;2.47;;;;;;;;;;5135165;27;20206;-64
2023/06/01 07:55:40;;;;;;;3.25;2.95;;;;;;;;;;5135866;27;20453;-65
2023/06/01 07:58:08;;;;;;;2.88;2.67;;;;;;;;;;5135038;27;20267;-65
2023/06/01 08:00:36;;;;;;;2.65;2.45;;;;;;;;;;5135715;27;20230;-63
2023/06/01 08:03:05;;;;;;;2.50;2.30;;;;;;;;;;5135667;27;20243;-63
2023/06/01 08:05:35;;;;;;;3.53;2.30;;;;;;;;;;5134780;27;20203;-63
2023/06/01 08:08:03;;;;;;;2.40;2.20;;;;;;;;;;5135397;27;20238;-64
2023/06/01 08:10:31;;;;;;;3.05;2.40;;;;;;;;;;5134973;27;20210;-64
2023/06/01 08:12:58;;;;;;;2.40;2.20;;;;;;;;;;5135421;27;20238;-64
2023/06/01 08:15:28;;;;;;;2.72;2.38;;;;;;;;;;5134898;27;20202;-63
2023/06/01 08:17:55;;;;;;;2.95;2.30;;;;;;;;;;5134288;27;20514;-63
2023/06/01 08:20:23;;;;;;;3.25;2.30;;;;;;;;;;5136274;27;20203;-63
2023/06/01 08:22:52;;;;;;;2.65;2.00;;;;;;;;;;5135437;27;20202;-64
2023/06/01 08:25:19;;;;;;;3.03;2.25;;;;;;;;;;5134846;27;20210;-64
2023/06/01 08:27:47;;;;;;;3.25;2.50;;;;;;;;;;5134224;27;20198;-64
2023/06/01 08:30:14;;;;;;;2.50;2.30;;;;;;;;;;5134189;27;20259;-63
2023/06/01 08:32:42;;;;;;;2.65;2.40;;;;;;;;;;5134621;27;20457;-63
2023/06/01 08:35:09;;;;;;;3.20;2.40;;;;;;;;;;5134287;27;20232;-63
2023/06/01 08:37:37;;;;;;;2.72;2.20;;;;;;;;;;5134171;27;20401;-64
2023/06/01 08:40:09;;;;;;;3.42;2.10;;;;;;;;;;5134476;27;20449;-64
2023/06/01 08:42:45;;;;;;;1.88;1.77;;;;;;;;;;5135322;27;20212;-64
2023/06/01 08:45:13;;;;;;;3.30;1.98;;;;;;;;;;5135190;27;20201;-64
2023/06/01 08:47:42;;;;;;;3.10;2.33;;;;;;;;;;5133932;27;20194;-64
2023/06/01 08:50:10;;;;;;;3.10;2.13;;;;;;;;;;5131597;27;20217;-64
2023/06/01 08:52:39;;;;;;;3.33;2.15;;;;;;;;;;5133212;27;20553;-64
2023/06/01 08:55:09;;;;;;;3.30;1.75;;;;;;;;;;5134899;27;20194;-64
2023/06/01 08:57:36;;;;;;;2.47;2.13;;;;;;;;;;5134600;27;20491;-63
2023/06/01 09:00:04;;;;;;;2.75;2.05;;;;;;;;;;5136576;28;20590;-63
2023/06/01 09:02:31;;;;;;;2.38;1.80;;;;;;;;;;5135696;28;20224;-64
2023/06/01 09:04:59;;;;;;;3.42;2.05;;;;;;;;;;5135106;28;20522;-64
2023/06/01 09:07:27;;;;;;;2.60;1.88;;;;;;;;;;5134535;28;20198;-63
2023/06/01 09:09:55;;;;;;;2.47;1.73;;;;;;;;;;5134894;28;20298;-64
2023/06/01 09:12:25;;;;;;;3.20;1.98;;;;;;;;;;5133668;28;20202;-64
2023/06/01 09:14:53;;;;;;;2.50;2.00;;;;;;;;;;5133395;28;20202;-64
2023/06/01 09:17:24;;;;;;;2.35;1.90;;;;;;;;;;5133171;28;20222;-63
2023/06/01 09:19:52;;;;;;;2.72;1.75;;;;;;;;;;5133338;28;20229;-64
2023/06/01 09:22:20;;;;;;;3.05;1.70;;;;;;;;;;5134242;28;20202;-64
2023/06/01 09:24:57;;;;;;;2.22;2.03;;;;;;;;;;5133986;28;20209;-64
2023/06/01 09:27:26;;;;;;;3.10;1.90;;;;;;;;;;5133482;28;20198;-64
2023/06/01 09:29:54;;;;;;;2.33;1.92;;;;;;;;;;5133830;28;20301;-64
2023/06/01 09:32:22;;;;;;;2.92;1.80;;;;;;;;;;5133871;28;20598;-64
2023/06/01 09:34:50;;;;;;;2.90;2.17;;;;;;;;;;5132509;28;20412;-65
2023/06/01 09:37:17;;;;;;;2.10;1.83;;;;;;;;;;5133370;28;20274;-64
2023/06/01 09:39:45;;;;;;;2.50;1.73;;;;;;;;;;5132503;28;20785;-64
2023/06/01 09:42:12;;;;;;;2.10;1.70;;;;;;;;;;5133072;28;20202;-65
2023/06/01 09:44:41;;;;;;;2.58;1.90;;;;;;;;;;5132216;28;20563;-64
2023/06/01 09:47:10;;;;;;;2.67;1.83;;;;;;;;;;5134454;27;20198;-64
2023/06/01 09:49:39;;;;;;;1.90;1.70;;;;;;;;;;5137522;27;20428;-64
2023/06/01 09:52:12;;;;;;;2.10;1.90;;;;;;;;;;5136871;27;20245;-64
2023/06/01 09:54:40;;;;;;;2.10;1.90;;;;;;;;;;5136856;27;20218;-64
2023/06/01 09:57:08;;;;;;;2.53;2.33;;;;;;;;;;5136296;27;20358;-64
2023/06/01 09:59:39;;;;;;;2.15;1.90;;;;;;;;;;5137703;27;20219;-64
2023/06/01 10:02:09;;;;;;;2.50;1.73;;;;;;;;;;5136155;27;20201;-64
2023/06/01 10:04:38;;;;;;;2.10;1.80;;;;;;;;;;5136252;27;20241;-64
2023/06/01 10:07:07;;;;;;;2.08;1.88;;;;;;;;;;5135113;27;20413;-64
2023/06/01 10:09:35;;;;;;;2.58;2.17;;;;;;;;;;5135779;27;20252;-68
2023/06/01 10:12:03;;;;;;;2.65;2.17;;;;;;;;;;5135815;27;20195;-64
2023/06/01 10:14:32;;;;;;;3.05;1.98;;;;;;;;;;5135226;27;20214;-65
2023/06/01 10:16:59;;;;;;;2.53;1.95;;;;;;;;;;5136725;27;20222;-65
2023/06/01 10:19:28;;;;;;;2.67;1.85;;;;;;;;;;5136490;27;20203;-64
2023/06/01 10:21:58;;;;;;;2.72;2.03;;;;;;;;;;5136115;27;20233;-64
2023/06/01 10:24:25;;;;;;;2.15;1.90;;;;;;;;;;5136066;27;20202;-64
2023/06/01 10:26:58;;;;;;;1.80;1.70;;;;;;;;;;5135344;27;20694;-64
2023/06/01 10:29:26;;;;;;;3.65;2.00;;;;;;;;;;5136059;27;20206;-64
2023/06/01 10:31:53;;;;;;;2.67;2.10;;;;;;;;;;5134645;27;20470;-65
2023/06/01 10:34:35;;;;;;;2.50;2.28;;;;;;;;;;5134116;27;20210;-64
2023/06/01 10:37:19;;;;;;;4.28;1.95;;;;;;;;;;5116312;27;20214;-64
2023/06/01 10:39:47;;;;;;;2.35;2.13;;;;;;;;;;5116671;28;20201;-64
2023/06/01 10:42:33;;;;;;;2.35;1.90;;;;;;;;;;5112679;28;20202;-64
2023/06/01 10:45:00;;;;;;;3.38;2.22;;;;;;;;;;5114691;28;20195;-64
2023/06/01 10:47:46;;;;;;;2.13;1.92;;;;;;;;;;5115738;28;20294;-64
2023/06/01 10:50:16;;;;;;;3.80;2.20;;;;;;;;;;5115045;28;20230;-65
2023/06/01 10:52:45;;;;;;;2.53;2.22;;;;;;;;;;5114341;28;20232;-64
2023/06/01 10:55:22;;;;;;;2.28;2.00;;;;;;;;;;5113867;28;20209;-65
2023/06/01 10:57:50;;;;;;;2.10;1.90;;;;;;;;;;5114246;28;20258;-63
2023/06/01 11:00:19;;;;;;;2.72;1.92;;;;;;;;;;5114613;28;20233;-64
2023/06/01 11:02:51;;;;;;;2.45;2.08;;;;;;;;;;5117650;27;20211;-63
2023/06/01 11:05:37;;;;;;;2.78;2.00;;;;;;;;;;5135594;27;20247;-65
2023/06/01 11:08:06;;;;;;;2.40;2.10;;;;;;;;;;5134688;27;20198;-64
2023/06/01 11:10:52;;;;;;;2.30;2.10;;;;;;;;;;5134718;27;20213;-63
2023/06/01 11:13:21;;;;;;;2.53;2.20;;;;;;;;;;5133562;27;20203;-64
2023/06/01 11:16:09;;;;;;;2.85;2.15;;;;;;;;;;5134651;27;20515;-65
2023/06/01 11:18:46;;;;;;;2.28;2.05;;;;;;;;;;5132913;27;20268;-65
2023/06/01 11:21:17;;;;;;;2.67;2.05;;;;;;;;;;5133372;27;20597;-65
2023/06/01 11:23:46;;;;;;;3.10;2.30;;;;;;;;;;5133911;27;20861;-66
2023/06/01 11:26:16;;;;;;;3.50;2.33;;;;;;;;;;5134622;27;20461;-65
2023/06/01 11:28:43;;;;;;;2.30;2.10;;;;;;;;;;5132666;27;20202;-65
2023/06/01 11:31:11;;;;;;;2.97;2.22;;;;;;;;;;5134536;27;20434;-65
2023/06/01 11:33:40;;;;;;;2.45;2.25;;;;;;;;;;5133946;27;20258;-64
2023/06/01 11:36:10;;;;;;;2.38;2.17;;;;;;;;;;5133839;27;20405;-65
2023/06/01 11:38:39;;;;;;;2.75;2.10;;;;;;;;;;5132522;27;20312;-65
2023/06/01 11:41:08;;;;;;;2.08;1.85;;;;;;;;;;5133497;27;20198;-65
2023/06/01 11:43:36;;;;;;;2.55;2.28;;;;;;;;;;5132834;27;20202;-65
2023/06/01 11:46:04;;;;;;;2.22;2.03;;;;;;;;;;5135806;27;20206;-65
2023/06/01 11:48:32;;;;;;;2.55;2.30;;;;;;;;;;5132713;27;20209;-65
2023/06/01 11:51:00;;;;;;;2.80;1.98;;;;;;;;;;5134480;27;20207;-65
2023/06/01 11:53:27;;;;;;;3.75;2.28;;;;;;;;;;5133847;27;20717;-66
2023/06/01 11:55:56;;;;;;;2.92;2.10;;;;;;;;;;5133526;27;20310;-65
2023/06/01 11:58:25;;;;;;;2.53;2.30;;;;;;;;;;5134352;27;20284;-65
2023/06/01 12:00:53;;;;;;;2.35;2.00;;;;;;;;;;5134075;27;20199;-65
2023/06/01 12:03:20;;;;;;;2.13;1.90;;;;;;;;;;5133945;27;20221;-65
2023/06/01 12:05:48;;;;;;;1.95;1.85;;;;;;;;;;5134239;27;20203;-66
2023/06/01 12:08:16;;;;;;;2.35;2.15;;;;;;;;;;5133521;27;20224;-65
2023/06/01 12:10:45;;;;;;;2.63;2.00;;;;;;;;;;5133246;27;20225;-65
2023/06/01 12:13:12;;;;;;;2.70;2.30;;;;;;;;;;5116263;27;20214;-65
2023/06/01 12:15:41;;;;;;;2.30;1.80;;;;;;;;;;5134835;27;20202;-65
2023/06/01 12:18:09;;;;;;;2.30;2.10;;;;;;;;;;5134903;27;20257;-65
2023/06/01 12:20:37;;;;;;;1.95;1.85;;;;;;;;;;5135392;27;20645;-65
2023/06/01 12:23:14;;;;;;;2.03;1.92;;;;;;;;;;5134901;27;20202;-65
2023/06/01 12:25:50;;;;;;;2.63;2.42;;;;;;;;;;5135470;27;20267;-65
2023/06/01 12:28:18;;;;;;;2.92;2.15;;;;;;;;;;5135667;27;20278;-65
2023/06/01 12:30:48;;;;;;;2.20;2.00;;;;;;;;;;5136174;27;20272;-65
2023/06/01 12:33:34;;;;;;;2.08;1.90;;;;;;;;;;5135515;27;20292;-66
2023/06/01 12:36:01;;;;;;;3.00;1.98;;;;;;;;;;5134359;27;20261;-65
2023/06/01 12:38:30;;;;;;;2.28;2.08;;;;;;;;;;5135647;27;20214;-65
2023/06/01 12:41:08;;;;;;;2.13;1.92;;;;;;;;;;5135628;27;20280;-65
2023/06/01 12:43:36;;;;;;;2.35;2.10;;;;;;;;;;5134816;27;20225;-65
2023/06/01 12:46:05;;;;;;;2.47;2.00;;;;;;;;;;5134494;27;20381;-65
2023/06/01 12:48:33;;;;;;;2.22;2.03;;;;;;;;;;5135606;27;20198;-65
2023/06/01 12:51:01;;;;;;;2.10;1.90;;;;;;;;;;5134369;27;20263;-65
2023/06/01 12:53:28;;;;;;;2.10;1.92;;;;;;;;;;5134458;27;20221;-65
2023/06/01 12:55:56;;;;;;;2.33;2.13;;;;;;;;;;5135252;27;20221;-65
2023/06/01 12:58:23;;;;;;;2.20;2.00;;;;;;;;;;5133925;27;20260;-65
2023/06/01 13:00:51;;;;;;;2.28;2.05;;;;;;;;;;5134293;27;20212;-65
2023/06/01 13:03:20;;;;;;;2.20;1.90;;;;;;;;;;5134393;27;20198;-65
2023/06/01 13:05:49;;;;;;;2.38;2.10;;;;;;;;;;5134410;27;20202;-65
2023/06/01 13:08:16;;;;;;;2.10;1.98;;;;;;;;;;5135527;28;20251;-65
2023/06/01 13:10:44;;;;;;;2.65;2.30;;;;;;;;;;5134423;27;20202;-66
2023/06/01 13:13:12;;;;;;;2.40;2.20;;;;;;;;;;5134374;27;20550;-65
2023/06/01 13:15:41;;;;;;;2.30;2.10;;;;;;;;;;5133127;28;20285;-65
2023/06/01 13:18:09;;;;;;;2.15;1.95;;;;;;;;;;5133653;27;20229;-64
2023/06/01 13:20:39;;;;;;;3.38;2.00;;;;;;;;;;5135212;27;20194;-64
2023/06/01 13:23:06;;;;;;;2.60;2.00;;;;;;;;;;5139520;27;20213;-64
2023/06/01 13:25:34;;;;;;;3.03;2.20;;;;;;;;;;5139542;27;20206;-65
2023/06/01 13:28:02;;;;;;;2.40;2.13;;;;;;;;;;5139152;27;20198;-64
2023/06/01 13:30:29;;;;;;;3.42;2.00;;;;;;;;;;5137902;27;20233;-64
2023/06/01 13:32:56;;;;;;;4.15;2.00;;;;;;;;;;5137485;27;20209;-64
2023/06/01 13:35:24;;;;;;;2.67;2.08;;;;;;;;;;5138266;27;20226;-64
2023/06/01 13:37:53;;;;;;;2.00;1.80;;;;;;;;;;5139412;27;20218;-64
2023/06/01 13:40:23;;;;;;;2.60;2.10;;;;;;;;;;5138203;27;20235;-64
2023/06/01 13:42:51;;;;;;;2.38;2.10;;;;;;;;;;5138306;27;20202;-64
2023/06/01 13:45:18;;;;;;;1.90;1.70;;;;;;;;;;5139146;27;20198;-64
2023/06/01 13:47:46;;;;;;;2.55;2.10;;;;;;;;;;5138240;27;20467;-65
2023/06/01 13:50:14;;;;;;;2.55;2.33;;;;;;;;;;5138274;27;20233;-65
2023/06/01 13:52:42;;;;;;;5.00;2.42;;;;;;;;;;5138176;27;20635;-64
2023/06/01 13:55:11;;;;;;;2.30;2.10;;;;;;;;;;5138302;27;20286;-65
2023/06/01 13:57:39;;;;;;;2.47;1.92;;;;;;;;;;5138781;27;20230;-64
2023/06/01 14:00:08;;;;;;;2.20;2.03;;;;;;;;;;5137910;27;20290;-64
2023/06/01 14:02:36;;;;;;;3.75;2.15;;;;;;;;;;5137515;27;20209;-64
2023/06/01 14:05:03;;;;;;;4.32;2.10;;;;;;;;;;5137456;27;20198;-64
2023/06/01 14:07:31;;;;;;;2.95;2.20;;;;;;;;;;5136848;27;20254;-65
2023/06/01 14:09:58;;;;;;;2.53;1.92;;;;;;;;;;5137424;27;20272;-64
2023/06/01 14:12:27;;;;;;;2.58;1.90;;;;;;;;;;5137827;27;20282;-64
2023/06/01 14:14:55;;;;;;;2.45;2.15;;;;;;;;;;5136494;27;20206;-64
2023/06/01 14:17:22;;;;;;;2.35;2.15;;;;;;;;;;5136734;27;20202;-65
2023/06/01 14:19:52;;;;;;;2.10;1.90;;;;;;;;;;5137578;27;20203;-65
2023/06/01 14:22:20;;;;;;;3.13;2.30;;;;;;;;;;5137348;27;20209;-64
2023/06/01 14:24:47;;;;;;;2.80;2.40;;;;;;;;;;5137909;27;20206;-65
2023/06/01 14:27:15;;;;;;;2.42;2.22;;;;;;;;;;5136274;27;20221;-64
2023/06/01 14:29:43;;;;;;;3.33;2.53;;;;;;;;;;5136490;27;20198;-64
2023/06/01 14:32:11;;;;;;;2.47;2.28;;;;;;;;;;5137106;27;20198;-65
2023/06/01 14:34:38;;;;;;;2.47;1.92;;;;;;;;;;5136381;27;20547;-64
2023/06/01 14:37:06;;;;;;;2.53;2.10;;;;;;;;;;5137810;27;20198;-64
2023/06/01 14:39:34;;;;;;;2.83;2.28;;;;;;;;;;5138042;27;20252;-64
2023/06/01 14:42:01;;;;;;;2.40;2.17;;;;;;;;;;5137152;27;20347;-64
2023/06/01 14:44:29;;;;;;;2.10;1.98;;;;;;;;;;5137492;27;20199;-64
2023/06/01 14:46:57;;;;;;;1.90;1.80;;;;;;;;;;5137313;27;20206;-64
2023/06/01 14:49:25;;;;;;;2.63;2.15;;;;;;;;;;5136858;27;20194;-64
2023/06/01 14:51:53;;;;;;;2.40;2.00;;;;;;;;;;5137316;27;20210;-64